createdAt,value
2022-09-12T00:00:23.570Z,100.00
2022-09-12T00:02:54.615Z,100.00
2022-09-12T00:05:23.369Z,100.00
2022-09-12T00:07:51.004Z,100.00
2022-09-12T00:10:18.903Z,100.00
2022-09-12T00:12:46.727Z,100.00
2022-09-12T00:15:14.479Z,100.00
2022-09-12T00:17:42.153Z,100.00
2022-09-12T00:20:12.545Z,100.00
2022-09-12T00:22:40.077Z,100.00
2022-09-12T00:25:08.487Z,100.00
2022-09-12T00:27:36.138Z,100.00
2022-09-12T00:30:03.745Z,100.00
2022-09-12T00:32:31.293Z,100.00
2022-09-12T00:34:58.826Z,100.00
2022-09-12T00:37:27.725Z,100.00
2022-09-12T00:39:55.342Z,100.00
2022-09-12T00:42:22.929Z,100.00
2022-09-12T00:44:52.821Z,100.00
2022-09-12T00:47:31.967Z,100.00
2022-09-12T00:50:06.987Z,100.00
2022-09-12T00:52:42.888Z,100.00
2022-09-12T00:55:14.025Z,100.00
2022-09-12T00:57:46.502Z,100.00
2022-09-12T01:00:16.900Z,100.00
2022-09-12T01:02:46.586Z,100.00
2022-09-12T01:05:14.831Z,100.00
2022-09-12T01:07:48.422Z,100.00
2022-09-12T01:10:16.190Z,100.00
2022-09-12T01:12:44.723Z,100.00
2022-09-12T01:15:12.342Z,100.00
2022-09-12T01:17:49.977Z,100.00
2022-09-12T01:20:47.105Z,100.00
2022-09-12T01:23:53.186Z,100.00
2022-09-12T01:26:45.194Z,100.00
2022-09-12T01:29:28.331Z,100.00
2022-09-12T01:32:07.629Z,100.00
2022-09-12T01:34:45.818Z,100.00
2022-09-12T01:37:19.538Z,100.00
2022-09-12T01:39:58.069Z,100.00
2022-09-12T01:42:34.449Z,100.00
2022-09-12T01:45:08.878Z,100.00
2022-09-12T01:47:41.626Z,100.00
2022-09-12T01:50:14.011Z,100.00
2022-09-12T01:52:46.465Z,100.00
2022-09-12T01:55:18.914Z,100.00
2022-09-12T01:57:52.645Z,100.00
2022-09-12T02:00:21.266Z,100.00
2022-09-12T02:02:55.654Z,100.00
2022-09-12T02:05:29.285Z,100.00
2022-09-12T02:08:06.861Z,100.00
2022-09-12T02:10:43.035Z,100.00
2022-09-12T02:13:15.939Z,100.00
2022-09-12T02:15:48.186Z,100.00
2022-09-12T02:18:19.410Z,100.00
2022-09-12T02:20:49.504Z,100.00
2022-09-12T02:23:22.007Z,100.00
2022-09-12T02:25:55.627Z,100.00
2022-09-12T02:28:27.517Z,100.00
2022-09-12T02:31:04.266Z,100.00
2022-09-12T02:33:44.323Z,100.00
2022-09-12T02:36:21.886Z,100.00
2022-09-12T02:38:49.813Z,100.00
2022-09-12T02:41:20.490Z,100.00
2022-09-12T02:43:49.266Z,100.00
2022-09-12T02:46:22.382Z,100.00
2022-09-12T02:48:51.749Z,100.00
2022-09-12T02:51:23.529Z,100.00
2022-09-12T02:53:51.617Z,100.00
2022-09-12T02:56:24.858Z,100.00
2022-09-12T02:58:53.275Z,100.00
2022-09-12T03:01:31.041Z,100.00
2022-09-12T03:04:29.550Z,100.00
2022-09-12T03:07:10.861Z,100.00
2022-09-12T03:09:44.035Z,100.00
2022-09-12T03:12:24.971Z,100.00
2022-09-12T03:15:13.259Z,100.00
2022-09-12T03:17:57.420Z,100.00
2022-09-12T03:20:42.250Z,100.00
2022-09-12T03:23:19.478Z,100.00
2022-09-12T03:25:52.688Z,100.00
2022-09-12T03:28:22.995Z,100.00
2022-09-12T03:30:53.381Z,100.00
2022-09-12T03:33:23.073Z,100.00
2022-09-12T03:35:52.721Z,100.00
2022-09-12T03:38:20.940Z,100.00
2022-09-12T03:40:52.709Z,100.00
2022-09-12T03:43:22.205Z,100.00
2022-09-12T03:45:52.056Z,100.00
2022-09-12T03:48:19.978Z,100.00
2022-09-12T03:50:47.494Z,100.00
2022-09-12T03:53:17.512Z,100.00
2022-09-12T03:55:45.231Z,100.00
2022-09-12T03:58:12.785Z,100.00
2022-09-12T04:00:40.927Z,100.00
2022-09-12T04:03:08.437Z,100.00
2022-09-12T04:05:36.694Z,100.00
2022-09-12T04:08:04.245Z,100.00
2022-09-12T04:10:33.706Z,100.00
2022-09-12T04:13:01.233Z,100.00
2022-09-12T04:15:28.765Z,100.00
2022-09-12T04:17:56.292Z,100.00
2022-09-12T04:20:23.874Z,100.00
2022-09-12T04:22:51.437Z,100.00
2022-09-12T04:25:19.010Z,100.00
2022-09-12T04:27:48.242Z,100.00
2022-09-12T04:30:16.138Z,100.00
2022-09-12T04:32:43.668Z,100.00
2022-09-12T04:35:12.239Z,100.00
2022-09-12T04:37:39.790Z,100.00
2022-09-12T04:40:08.379Z,100.00
2022-09-12T04:42:35.970Z,100.00
2022-09-12T04:45:06.185Z,100.00
2022-09-12T04:47:33.723Z,100.00
2022-09-12T04:50:01.286Z,100.00
2022-09-12T04:52:29.353Z,100.00
2022-09-12T04:54:57.266Z,100.00
2022-09-12T04:57:25.849Z,100.00
2022-09-12T04:59:53.387Z,100.00
2022-09-12T05:02:22.517Z,100.00
2022-09-12T05:04:50.097Z,100.00
2022-09-12T05:07:17.634Z,100.00
2022-09-12T05:09:45.195Z,100.00
2022-09-12T05:12:13.304Z,100.00
2022-09-12T05:14:40.938Z,100.00
2022-09-12T05:17:08.465Z,100.00
2022-09-12T05:19:37.688Z,100.00
2022-09-12T05:22:06.651Z,100.00
2022-09-12T05:24:35.113Z,100.00
2022-09-12T05:27:03.387Z,100.00
2022-09-12T05:29:31.002Z,100.00
2022-09-12T05:31:58.546Z,100.00
2022-09-12T05:34:27.809Z,100.00
2022-09-12T05:36:56.782Z,100.00
2022-09-12T05:39:24.543Z,100.00
2022-09-12T05:41:52.072Z,100.00
2022-09-12T05:44:19.946Z,100.00
2022-09-12T05:46:50.755Z,100.00
2022-09-12T05:49:18.307Z,100.00
2022-09-12T05:51:46.566Z,100.00
2022-09-12T05:54:19.403Z,100.00
2022-09-12T05:56:47.957Z,100.00
2022-09-12T05:59:17.286Z,100.00
2022-09-12T06:01:45.819Z,97.78
2022-09-12T06:04:13.589Z,91.69
2022-09-12T06:06:45.029Z,88.61
2022-09-12T06:09:15.685Z,78.89
2022-09-12T06:11:43.331Z,79.49
2022-09-12T06:14:12.728Z,74.29
2022-09-12T06:16:40.470Z,74.36
2022-09-12T06:19:13.752Z,73.50
2022-09-12T06:21:41.448Z,70.89
2022-09-12T06:24:09.286Z,71.56
2022-09-12T06:26:38.295Z,65.11
2022-09-12T06:29:05.989Z,64.29
2022-09-12T06:31:35.426Z,67.54
2022-09-12T06:34:05.654Z,67.87
2022-09-12T06:36:36.228Z,65.55
2022-09-12T06:39:06.286Z,66.52
2022-09-12T06:41:34.184Z,66.62
2022-09-12T06:44:03.907Z,64.78
2022-09-12T06:46:32.038Z,64.85
2022-09-12T06:49:00.630Z,66.51
2022-09-12T06:51:29.262Z,63.61
2022-09-12T06:53:58.200Z,63.13
2022-09-12T06:56:26.989Z,65.51
2022-09-12T06:58:56.970Z,66.57
2022-09-12T07:01:27.739Z,62.64
2022-09-12T07:03:57.299Z,64.85
2022-09-12T07:06:31.508Z,67.02
2022-09-12T07:08:59.505Z,66.16
2022-09-12T07:11:29.257Z,64.74
2022-09-12T07:13:57.811Z,63.36
2022-09-12T07:16:26.955Z,64.07
2022-09-12T07:18:56.397Z,63.11
2022-09-12T07:21:24.037Z,62.25
2022-09-12T07:23:52.697Z,63.38
2022-09-12T07:26:20.250Z,64.89
2022-09-12T07:28:52.001Z,65.54
2022-09-12T07:31:20.618Z,68.82
2022-09-12T07:33:54.449Z,67.28
2022-09-12T07:36:24.590Z,65.46
2022-09-12T07:38:57.533Z,65.91
2022-09-12T07:41:27.481Z,66.03
2022-09-12T07:43:57.025Z,65.80
2022-09-12T07:46:25.386Z,64.30
2022-09-12T07:48:56.355Z,64.69
2022-09-12T07:51:24.922Z,64.10
2022-09-12T07:53:52.737Z,63.17
2022-09-12T07:56:22.007Z,62.87
2022-09-12T07:58:51.011Z,63.43
2022-09-12T08:01:20.011Z,62.74
2022-09-12T08:03:49.109Z,63.49
2022-09-12T08:06:21.000Z,63.94
2022-09-12T08:08:49.158Z,64.15
2022-09-12T08:11:18.398Z,64.65
2022-09-12T08:13:49.640Z,64.18
2022-09-12T08:16:22.825Z,63.77
2022-09-12T08:18:51.073Z,64.05
2022-09-12T08:21:21.931Z,63.15
2022-09-12T08:23:54.010Z,63.70
2022-09-12T08:26:21.586Z,64.53
2022-09-12T08:28:49.701Z,63.15
2022-09-12T08:31:19.809Z,62.74
2022-09-12T08:33:47.848Z,62.19
2022-09-12T08:36:17.767Z,62.60
2022-09-12T08:38:48.606Z,62.61
2022-09-12T08:41:27.199Z,62.64
2022-09-12T08:44:08.786Z,62.99
2022-09-12T08:46:44.687Z,62.63
2022-09-12T08:49:16.290Z,62.13
2022-09-12T08:51:44.048Z,61.97
2022-09-12T08:54:24.738Z,62.20
2022-09-12T08:56:55.011Z,62.01
2022-09-12T08:59:22.929Z,61.75
2022-09-12T09:01:55.444Z,61.30
2022-09-12T09:04:38.626Z,61.40
2022-09-12T09:07:23.545Z,61.30
2022-09-12T09:10:07.974Z,60.48
2022-09-12T09:12:43.234Z,60.69
2022-09-12T09:15:40.983Z,60.00
2022-09-12T09:18:16.627Z,61.05
2022-09-12T09:20:50.043Z,60.71
2022-09-12T09:23:23.159Z,60.77
2022-09-12T09:25:57.559Z,61.10
2022-09-12T09:28:31.964Z,61.20
2022-09-12T09:30:59.795Z,60.48
2022-09-12T09:33:34.705Z,60.86
2022-09-12T09:36:14.818Z,60.80
2022-09-12T09:38:49.397Z,60.03
2022-09-12T09:41:36.256Z,60.22
2022-09-12T09:44:04.267Z,59.01
2022-09-12T09:46:32.760Z,60.23
2022-09-12T09:49:03.815Z,60.98
2022-09-12T09:51:36.043Z,59.42
2022-09-12T09:54:12.409Z,60.34
2022-09-12T09:56:43.132Z,59.50
2022-09-12T09:59:12.726Z,60.02
2022-09-12T10:01:46.303Z,59.04
2022-09-12T10:04:20.314Z,58.36
2022-09-12T10:06:48.459Z,59.27
2022-09-12T10:09:23.094Z,58.44
2022-09-12T10:11:53.094Z,59.84
2022-09-12T10:14:36.688Z,57.17
2022-09-12T10:17:23.556Z,56.86
2022-09-12T10:20:10.506Z,57.28
2022-09-12T10:22:39.630Z,58.26
2022-09-12T10:25:13.052Z,57.64
2022-09-12T10:27:43.170Z,58.13
2022-09-12T10:30:19.200Z,58.61
2022-09-12T10:32:50.571Z,57.89
2022-09-12T10:35:21.742Z,58.10
2022-09-12T10:37:56.701Z,59.25
2022-09-12T10:40:26.404Z,58.09
2022-09-12T10:42:57.318Z,58.82
2022-09-12T10:45:29.011Z,58.26
2022-09-12T10:48:02.087Z,57.28
2022-09-12T10:50:33.234Z,57.56
2022-09-12T10:53:15.838Z,54.72
2022-09-12T10:56:02.152Z,54.46
2022-09-12T10:58:50.049Z,54.82
2022-09-12T11:01:33.828Z,55.98
2022-09-12T11:04:15.616Z,56.26
2022-09-12T11:06:55.670Z,54.55
2022-09-12T11:09:29.634Z,53.50
2022-09-12T11:12:09.525Z,53.51
2022-09-12T11:14:52.406Z,52.52
2022-09-12T11:17:31.920Z,51.49
2022-09-12T11:20:33.371Z,51.15
2022-09-12T11:23:26.615Z,52.04
2022-09-12T11:26:00.964Z,53.36
2022-09-12T11:28:36.456Z,52.65
2022-09-12T11:31:34.501Z,53.67
2022-09-12T11:34:09.198Z,53.41
2022-09-12T11:36:44.265Z,51.71
2022-09-12T11:39:15.461Z,51.78
2022-09-12T11:41:44.981Z,53.26
2022-09-12T11:44:18.514Z,51.82
2022-09-12T11:46:51.555Z,52.74
2022-09-12T11:49:34.788Z,52.93
2022-09-12T11:52:07.618Z,52.00
2022-09-12T11:54:41.532Z,50.76
2022-09-12T11:57:16.054Z,51.94
2022-09-12T11:59:49.419Z,51.47
2022-09-12T12:02:26.377Z,52.36
2022-09-12T12:05:04.819Z,52.04
2022-09-12T12:07:45.377Z,50.19
2022-09-12T12:10:26.618Z,50.58
2022-09-12T12:12:56.441Z,51.68
2022-09-12T12:15:26.551Z,51.39
2022-09-12T12:18:08.732Z,51.37
2022-09-12T12:20:37.236Z,51.43
2022-09-12T12:23:05.045Z,53.02
2022-09-12T12:25:52.751Z,53.16
2022-09-12T12:28:53.796Z,51.88
2022-09-12T12:31:21.366Z,52.96
2022-09-12T12:33:56.562Z,52.67
2022-09-12T12:36:40.182Z,51.93
2022-09-12T12:39:48.051Z,51.91
2022-09-12T12:43:04.429Z,51.30
2022-09-12T12:46:03.692Z,52.16
2022-09-12T12:48:36.283Z,51.38
2022-09-12T12:51:25.437Z,50.28
2022-09-12T12:53:54.554Z,52.22
2022-09-12T12:56:39.776Z,50.46
2022-09-12T12:59:18.622Z,50.03
2022-09-12T13:01:54.754Z,51.41
2022-09-12T13:04:25.898Z,49.42
2022-09-12T13:07:05.837Z,49.35
2022-09-12T13:09:39.453Z,49.86
2022-09-12T13:12:10.014Z,48.98
2022-09-12T13:14:52.637Z,48.91
2022-09-12T13:17:26.235Z,50.23
2022-09-12T13:20:26.130Z,49.75
2022-09-12T13:22:53.281Z,48.96
2022-09-12T13:25:24.774Z,49.37
2022-09-12T13:28:01.173Z,50.32
2022-09-12T13:30:30.111Z,50.43
2022-09-12T13:33:00.082Z,49.37
2022-09-12T13:35:37.403Z,49.83
2022-09-12T13:38:15.908Z,49.67
2022-09-12T13:40:56.990Z,50.76
2022-09-12T13:43:37.101Z,50.23
2022-09-12T13:46:04.829Z,49.50
2022-09-12T13:48:32.460Z,49.07
2022-09-12T13:51:02.467Z,49.88
2022-09-12T13:53:37.826Z,50.25
2022-09-12T13:56:05.423Z,50.65
2022-09-12T13:58:35.106Z,49.75
2022-09-12T14:01:06.840Z,50.86
2022-09-12T14:03:58.998Z,50.84
2022-09-12T14:06:27.510Z,51.64
2022-09-12T14:08:58.279Z,52.63
2022-09-12T14:11:28.802Z,52.83
2022-09-12T14:13:57.110Z,53.10
2022-09-12T14:16:27.271Z,53.93
2022-09-12T14:18:54.889Z,53.60
2022-09-12T14:21:34.905Z,53.79
2022-09-12T14:24:08.498Z,55.28
2022-09-12T14:26:37.451Z,55.33
2022-09-12T14:29:07.484Z,55.56
2022-09-12T14:31:37.617Z,55.78
2022-09-12T14:34:13.519Z,55.31
2022-09-12T14:36:45.809Z,56.18
2022-09-12T14:39:22.835Z,55.74
2022-09-12T14:41:50.905Z,55.79
2022-09-12T14:44:21.954Z,55.96
2022-09-12T14:46:51.141Z,55.56
2022-09-12T14:49:22.401Z,55.78
2022-09-12T14:51:56.389Z,57.39
2022-09-12T14:54:39.378Z,57.15
2022-09-12T14:57:17.808Z,57.40
2022-09-12T14:59:45.323Z,57.61
2022-09-12T15:02:24.054Z,56.94
2022-09-12T15:04:53.227Z,57.52
2022-09-12T15:07:32.474Z,57.43
2022-09-12T15:10:03.432Z,57.96
2022-09-12T15:12:31.029Z,58.43
2022-09-12T15:15:03.229Z,58.93
2022-09-12T15:17:30.771Z,58.84
2022-09-12T15:19:58.328Z,58.97
2022-09-12T15:22:26.916Z,59.32
2022-09-12T15:24:56.310Z,59.14
2022-09-12T15:27:26.665Z,59.49
2022-09-12T15:29:54.402Z,60.04
2022-09-12T15:32:24.706Z,59.85
2022-09-12T15:34:52.671Z,60.36
2022-09-12T15:37:21.758Z,60.63
2022-09-12T15:39:49.857Z,62.92
2022-09-12T15:42:18.797Z,62.64
2022-09-12T15:44:47.666Z,62.89
2022-09-12T15:47:15.374Z,63.43
2022-09-12T15:49:42.905Z,63.97
2022-09-12T15:52:15.687Z,63.70
2022-09-12T15:54:44.022Z,63.76
2022-09-12T15:57:11.670Z,64.01
2022-09-12T15:59:39.556Z,64.33
2022-09-12T16:02:10.247Z,64.15
2022-09-12T16:04:38.424Z,64.47
2022-09-12T16:07:06.106Z,64.96
2022-09-12T16:09:34.362Z,65.16
2022-09-12T16:12:02.258Z,66.12
2022-09-12T16:14:29.827Z,65.98
2022-09-12T16:16:57.369Z,66.38
2022-09-12T16:19:26.265Z,66.99
2022-09-12T16:21:53.778Z,67.17
2022-09-12T16:24:21.439Z,67.72
2022-09-12T16:26:49.297Z,68.23
2022-09-12T16:29:17.069Z,68.56
2022-09-12T16:31:44.829Z,69.11
2022-09-12T16:34:13.666Z,69.16
2022-09-12T16:36:45.122Z,69.49
2022-09-12T16:39:12.650Z,69.92
2022-09-12T16:41:42.070Z,70.83
2022-09-12T16:44:10.149Z,71.01
2022-09-12T16:46:37.883Z,71.02
2022-09-12T16:49:06.350Z,71.83
2022-09-12T16:51:35.776Z,72.15
2022-09-12T16:54:05.085Z,73.03
2022-09-12T16:56:32.652Z,73.27
2022-09-12T16:59:00.184Z,73.24
2022-09-12T17:01:28.502Z,73.81
2022-09-12T17:03:57.370Z,74.29
2022-09-12T17:06:26.122Z,74.51
2022-09-12T17:08:55.377Z,74.81
2022-09-12T17:11:26.640Z,74.81
2022-09-12T17:14:05.500Z,75.66
2022-09-12T17:16:34.944Z,76.55
2022-09-12T17:19:02.577Z,76.64
2022-09-12T17:21:30.266Z,77.03
2022-09-12T17:23:59.086Z,78.01
2022-09-12T17:26:28.203Z,78.12
2022-09-12T17:28:55.836Z,78.88
2022-09-12T17:31:23.457Z,79.04
2022-09-12T17:33:51.065Z,78.89
2022-09-12T17:36:18.956Z,79.30
2022-09-12T17:38:47.283Z,79.41
2022-09-12T17:41:17.540Z,79.98
2022-09-12T17:43:49.953Z,80.75
2022-09-12T17:46:18.052Z,80.73
2022-09-12T17:48:45.682Z,81.47
2022-09-12T17:51:14.917Z,81.61
2022-09-12T17:53:43.177Z,82.12
2022-09-12T17:56:12.225Z,82.98
2022-09-12T17:58:40.115Z,83.21
2022-09-12T18:01:30.359Z,83.60
2022-09-12T18:04:00.452Z,84.32
2022-09-12T18:06:28.681Z,84.57
2022-09-12T18:08:56.561Z,85.06
2022-09-12T18:11:24.073Z,85.17
2022-09-12T18:13:51.607Z,84.97
2022-09-12T18:16:20.913Z,86.13
2022-09-12T18:18:50.902Z,86.01
2022-09-12T18:21:19.738Z,86.21
2022-09-12T18:23:47.655Z,86.72
2022-09-12T18:26:15.424Z,87.53
2022-09-12T18:28:44.873Z,87.22
2022-09-12T18:31:15.072Z,87.59
2022-09-12T18:33:44.162Z,87.34
2022-09-12T18:36:13.773Z,87.61
2022-09-12T18:38:42.223Z,87.60
2022-09-12T18:41:11.511Z,87.61
2022-09-12T18:43:39.467Z,87.49
2022-09-12T18:46:08.544Z,87.63
2022-09-12T18:48:36.979Z,87.91
2022-09-12T18:51:08.782Z,87.92
2022-09-12T18:53:37.694Z,87.62
2022-09-12T18:56:08.519Z,87.70
2022-09-12T18:58:36.349Z,87.86
2022-09-12T19:01:10.627Z,88.03
2022-09-12T19:03:38.170Z,88.10
2022-09-12T19:06:12.246Z,88.18
2022-09-12T19:08:40.463Z,88.34
2022-09-12T19:11:08.723Z,88.42
2022-09-12T19:13:38.127Z,88.39
2022-09-12T19:16:08.886Z,88.24
2022-09-12T19:18:36.897Z,88.42
2022-09-12T19:21:05.250Z,88.05
2022-09-12T19:23:35.306Z,88.38
2022-09-12T19:26:05.530Z,88.70
2022-09-12T19:28:33.547Z,88.66
2022-09-12T19:31:01.287Z,88.85
2022-09-12T19:33:29.228Z,89.26
2022-09-12T19:35:56.766Z,89.18
2022-09-12T19:38:24.285Z,88.84
2022-09-12T19:40:59.522Z,89.68
2022-09-12T19:43:27.905Z,90.70
2022-09-12T19:45:56.240Z,90.81
2022-09-12T19:48:24.230Z,92.03
2022-09-12T19:50:51.897Z,91.95
2022-09-12T19:53:19.545Z,92.21
2022-09-12T19:55:47.293Z,92.41
2022-09-12T19:58:16.165Z,92.57
2022-09-12T20:00:43.733Z,92.65
2022-09-12T20:03:11.282Z,92.85
2022-09-12T20:05:42.612Z,92.99
2022-09-12T20:08:10.727Z,93.64
2022-09-12T20:10:38.290Z,93.49
2022-09-12T20:13:06.636Z,93.32
2022-09-12T20:15:35.697Z,93.64
2022-09-12T20:18:03.323Z,93.71
2022-09-12T20:20:31.866Z,93.90
2022-09-12T20:22:59.402Z,93.83
2022-09-12T20:25:26.934Z,93.91
2022-09-12T20:27:59.464Z,94.02
2022-09-12T20:30:27.722Z,94.29
2022-09-12T20:32:56.585Z,94.52
2022-09-12T20:35:24.150Z,94.41
2022-09-12T20:37:51.653Z,94.40
2022-09-12T20:40:19.826Z,94.57
2022-09-12T20:42:47.380Z,94.55
2022-09-12T20:45:15.057Z,94.56
2022-09-12T20:47:42.922Z,94.50
2022-09-12T20:50:11.984Z,94.53
2022-09-12T20:52:39.498Z,94.27
2022-09-12T20:55:07.662Z,94.20
2022-09-12T20:57:35.181Z,94.37
2022-09-12T21:00:03.565Z,94.04
2022-09-12T21:02:31.207Z,93.93
2022-09-12T21:04:58.800Z,93.86
2022-09-12T21:07:27.694Z,93.67
2022-09-12T21:09:55.214Z,93.40
2022-09-12T21:12:22.826Z,93.10
2022-09-12T21:14:50.357Z,92.77
2022-09-12T21:17:18.222Z,92.58
2022-09-12T21:19:45.754Z,92.36
2022-09-12T21:22:13.262Z,92.24
2022-09-12T21:24:42.190Z,91.77
2022-09-12T21:27:10.066Z,91.26
2022-09-12T21:29:37.954Z,91.17
2022-09-12T21:32:06.049Z,91.07
2022-09-12T21:34:33.602Z,90.50
2022-09-12T21:37:01.129Z,90.31
2022-09-12T21:39:28.661Z,89.85
2022-09-12T21:41:57.535Z,89.82
2022-09-12T21:44:25.045Z,89.14
2022-09-12T21:46:52.610Z,89.28
2022-09-12T21:49:20.143Z,88.97
2022-09-12T21:51:47.877Z,88.89
2022-09-12T21:54:15.720Z,88.73
2022-09-12T21:56:43.321Z,88.38
2022-09-12T21:59:12.198Z,88.51
2022-09-12T22:01:39.783Z,88.71
2022-09-12T22:04:07.375Z,88.27
2022-09-12T22:06:34.917Z,88.34
2022-09-12T22:09:02.660Z,87.85
2022-09-12T22:11:30.545Z,87.64
2022-09-12T22:13:58.221Z,87.35
2022-09-12T22:16:27.241Z,87.16
2022-09-12T22:18:54.797Z,87.30
2022-09-12T22:21:24.249Z,86.99
2022-09-12T22:24:09.506Z,86.70
2022-09-12T22:26:44.430Z,86.45
2022-09-12T22:29:13.231Z,86.82
2022-09-12T22:31:42.475Z,87.14
2022-09-12T22:34:10.058Z,87.81
2022-09-12T22:36:39.145Z,87.83
2022-09-12T22:39:07.266Z,87.29
2022-09-12T22:41:34.862Z,86.90
2022-09-12T22:44:02.581Z,87.22
2022-09-12T22:46:30.843Z,87.45
2022-09-12T22:48:59.857Z,88.08
2022-09-12T22:51:27.403Z,88.10
2022-09-12T22:53:56.382Z,88.73
2022-09-12T22:56:24.795Z,89.11
2022-09-12T22:58:52.396Z,90.17
2022-09-12T23:01:20.165Z,91.50
2022-09-12T23:03:47.757Z,92.03
2022-09-12T23:06:16.834Z,93.01
2022-09-12T23:08:44.715Z,94.93
2022-09-12T23:11:13.798Z,94.92
2022-09-12T23:13:43.694Z,95.49
2022-09-12T23:16:16.662Z,96.27
2022-09-12T23:18:44.314Z,97.89
2022-09-12T23:21:13.399Z,99.11
2022-09-12T23:23:42.519Z,100.00
2022-09-12T23:26:12.519Z,100.00
2022-09-12T23:28:40.847Z,100.00
2022-09-12T23:31:09.721Z,100.00
2022-09-12T23:33:37.754Z,100.00
2022-09-12T23:36:07.091Z,100.00
2022-09-12T23:38:36.203Z,100.00
2022-09-12T23:41:05.862Z,100.00
2022-09-12T23:43:33.989Z,100.00
2022-09-12T23:46:01.841Z,100.00
2022-09-12T23:48:29.526Z,100.00
2022-09-12T23:50:57.079Z,100.00
2022-09-12T23:53:25.017Z,100.00
2022-09-12T23:55:53.161Z,100.00
2022-09-12T23:58:22.708Z,100.00
